MQB weather

Macomb Municipal Airport
Macomb, Illinois, United States

Public forecast

Using degrees Fahrenheit for public forecast. Weather courtesy of forecast.io.

Current aviation weather report (METAR) for Macomb Municipal Airport

Retrieved 2019/10/19 11:35 UTC (0 seconds ago):

KMQB 191135Z AUTO 16005KT 10SM CLR 05/04 A2983 RMK AO2 T00520042

Closest aviation forecast (TAF) to Macomb Municipal Airport

Closest forecast is Southeast Iowa Regional Airport, 26.7 nm (49.5 km) NW. Retrieved 2019/10/19 06:57 UTC (4 hours ago):

TAF KBRL 190554Z 1906/2006 18010G18KT P6SM SCT100 FM190800 16012KT P6SM SCT080 WS015/19040KT FM191400 20008KT P6SM SCT030 BKN080 FM191900 24006KT 6SM -SHRA OVC035 FM200000 VRB03KT P6SM BKN030